Portada
METAR-TAF:

METAR-TAF

Aeropuertos :

Aeropuerto Internacional Augusto C. Sandino

Managua, Nicaragua

latitud: 12-09N, longitud: 086-10W, altitud: 50 m

Observación

El informe se hizo hace 28 minutos, a las 10:00 UTC
Viento 10 kt del este
Temperatura 26°C
Humedad 74%
Presión 1010 hPa
Visibilidad 10 km o más
Escasas nubes a una altura de 2000 ft

METAR: MNMG 191000Z 09010KT 9999 FEW020 26/21 Q1010 A2983 NOSIG

Hora: 04:28 (10:28 UTC)

Pronóstico

El informe se hizo hace 6 horas y 13 minutos, a las 04:15 UTC
Pronóstico válido del 19 a las 06 UTC al 20 a las 06 UTC
Viento 16 kt del este
Visibilidad 10 km o más
sin nubes por debajo de 1500 m y sin presencia de cumulonimbus.
Temporalmente
del 19 a las 13 UTC al 19 a las 18 UTC
Viento 16 kt del este con ráfagas de 26 kt
Visibilidad 10 km o más
Nubes dispersas a una altura de 2300 ft

TAF: MNMG 190415Z 1906/2006 09016KT CAVOK TEMPO 1913/1918 07014KT 9999 SCT023 TEMMPO 1919/1923 09016G26KT

Observaciones y pronósticos meteorológicos de más de 4000 aeropuertos (mensajes METAR y TAF).

Los puntos amarillos y rojos representan las estaciones disponibles.

Ponga el ratón en el punto deseado para ver el nombre de la estación.

Haga clic para ver las observaciones y los pronósticos meteorológicos.

Para cambiar el mapa : haga clic en los botones verdes con una cruz de color negro para hacer un zoom, en el botón verde con un guión para alejar o en las flechas verdes para mapas adyacentes.


METAR-TAF: